Time;durP1;ratioP1;P1;durP2;ratioP2;P2;SDS_P1;SDS_P2;PMS_P1;PMS_P2;Temp;Humidity;BMP_temperature;BMP_pressure;BME280_temperature;BME280_humidity;BME280_pressure;Samples;Min_cycle;Max_cycle;Signal;HPM_P1;HPM_P2
2020/12/22 00:01:34;;;;;;;103.27;61.70;;;;;;;;;;4992548;28;20551;-77
2020/12/22 00:03:59;;;;;;;104.47;57.43;;;;;;;;;;4993015;28;20178;-77
2020/12/22 00:06:24;;;;;;;105.23;58.97;;;;;;;;;;4993074;28;20174;-77
2020/12/22 00:08:53;;;;;;;117.60;65.63;;;;;;;;;;4993011;28;20297;-78
2020/12/22 00:11:19;;;;;;;115.90;66.53;;;;;;;;;;4995385;28;20297;-78
2020/12/22 00:13:44;;;;;;;90.13;52.87;;;;;;;;;;4996835;28;20265;-77
2020/12/22 00:16:09;;;;;;;99.17;53.50;;;;;;;;;;4996763;28;20259;-77
2020/12/22 00:18:35;;;;;;;105.37;57.27;;;;;;;;;;4996899;28;21247;-78
2020/12/22 00:21:00;;;;;;;91.47;51.43;;;;;;;;;;4996729;28;20232;-77
2020/12/22 00:23:25;;;;;;;115.43;59.13;;;;;;;;;;4996589;28;20169;-77
2020/12/22 00:25:51;;;;;;;105.77;57.23;;;;;;;;;;4996802;28;20679;-78
2020/12/22 00:28:17;;;;;;;90.67;50.77;;;;;;;;;;4997163;28;20331;-78
2020/12/22 00:30:43;;;;;;;93.60;53.37;;;;;;;;;;4997089;28;20523;-77
2020/12/22 00:33:08;;;;;;;90.83;50.83;;;;;;;;;;4996826;28;20181;-78
2020/12/22 00:35:33;;;;;;;91.67;50.80;;;;;;;;;;4996383;28;20205;-77
2020/12/22 00:37:59;;;;;;;84.60;49.23;;;;;;;;;;4996199;28;20174;-78
2020/12/22 00:40:24;;;;;;;85.87;50.17;;;;;;;;;;4996727;28;20174;-78
2020/12/22 00:42:50;;;;;;;93.77;51.27;;;;;;;;;;4996336;28;20169;-78
2020/12/22 00:45:16;;;;;;;86.37;48.77;;;;;;;;;;4996374;28;20186;-78
2020/12/22 00:47:41;;;;;;;79.87;47.57;;;;;;;;;;4995945;28;20181;-78
2020/12/22 00:50:06;;;;;;;104.40;53.27;;;;;;;;;;4996131;28;20174;-78
2020/12/22 00:52:32;;;;;;;89.17;48.50;;;;;;;;;;4996210;28;20264;-78
2020/12/22 00:54:57;;;;;;;82.90;47.77;;;;;;;;;;5005729;28;20194;-79
2020/12/22 00:57:22;;;;;;;87.73;48.40;;;;;;;;;;5020609;28;20158;-79
2020/12/22 00:59:48;;;;;;;84.43;48.07;;;;;;;;;;5020661;28;20237;-78
2020/12/22 01:02:13;;;;;;;88.73;47.63;;;;;;;;;;5006019;28;20198;-77
2020/12/22 01:04:38;;;;;;;83.17;48.90;;;;;;;;;;4996255;28;21075;-77
2020/12/22 01:07:04;;;;;;;94.47;50.97;;;;;;;;;;4995901;28;20197;-77
2020/12/22 01:09:29;;;;;;;90.10;50.67;;;;;;;;;;4996264;28;20177;-77
2020/12/22 01:11:54;;;;;;;87.10;50.80;;;;;;;;;;4996007;28;20178;-77
2020/12/22 01:14:20;;;;;;;86.13;49.53;;;;;;;;;;4996079;28;20197;-79
2020/12/22 01:16:45;;;;;;;91.43;48.77;;;;;;;;;;4995899;28;20232;-77
2020/12/22 01:19:11;;;;;;;102.90;56.77;;;;;;;;;;4995813;28;20218;-78
2020/12/22 01:21:36;;;;;;;89.47;52.80;;;;;;;;;;4995271;28;20170;-77
2020/12/22 01:24:04;;;;;;;88.07;50.30;;;;;;;;;;4995274;28;20170;-77
2020/12/22 01:26:29;;;;;;;86.77;48.57;;;;;;;;;;4995626;28;20205;-77
2020/12/22 01:28:54;;;;;;;92.50;49.70;;;;;;;;;;4995293;28;20208;-77
2020/12/22 01:31:23;;;;;;;89.13;48.50;;;;;;;;;;4995980;28;20617;-77
2020/12/22 01:33:49;;;;;;;84.60;49.60;;;;;;;;;;4995684;28;20181;-77
2020/12/22 01:36:14;;;;;;;86.47;48.47;;;;;;;;;;4995019;28;20205;-77
2020/12/22 01:38:40;;;;;;;86.07;47.87;;;;;;;;;;4995315;28;20178;-77
2020/12/22 01:41:05;;;;;;;90.17;48.77;;;;;;;;;;4995230;28;20170;-77
2020/12/22 01:43:30;;;;;;;87.67;48.00;;;;;;;;;;4995339;28;20174;-77
2020/12/22 01:45:56;;;;;;;85.27;48.03;;;;;;;;;;4994876;28;20174;-78
2020/12/22 01:48:21;;;;;;;93.40;50.90;;;;;;;;;;4995686;28;20228;-77
2020/12/22 01:50:46;;;;;;;80.07;47.03;;;;;;;;;;4995041;28;20526;-77
2020/12/22 01:53:12;;;;;;;81.97;48.33;;;;;;;;;;4994813;28;20174;-77
2020/12/22 01:55:42;;;;;;;87.23;49.37;;;;;;;;;;4994683;28;20264;-77
2020/12/22 01:58:07;;;;;;;86.27;48.53;;;;;;;;;;4994840;28;20174;-77
2020/12/22 02:00:33;;;;;;;91.67;50.60;;;;;;;;;;4994586;28;20229;-78
2020/12/22 02:02:58;;;;;;;96.77;52.13;;;;;;;;;;4994777;28;20527;-77
2020/12/22 02:05:23;;;;;;;110.90;55.20;;;;;;;;;;4995157;28;20174;-77
2020/12/22 02:07:49;;;;;;;97.07;52.30;;;;;;;;;;4994497;28;20181;-77
2020/12/22 02:10:14;;;;;;;109.97;54.03;;;;;;;;;;4994472;28;20236;-77
2020/12/22 02:12:42;;;;;;;90.90;50.00;;;;;;;;;;4994987;28;20178;-77
2020/12/22 02:15:08;;;;;;;87.37;46.93;;;;;;;;;;4994309;28;20738;-77
2020/12/22 02:17:34;;;;;;;86.67;47.67;;;;;;;;;;4994830;28;20178;-77
2020/12/22 02:19:59;;;;;;;83.80;45.50;;;;;;;;;;4994628;28;20518;-77
2020/12/22 02:22:25;;;;;;;81.23;46.73;;;;;;;;;;4994487;28;20174;-77
2020/12/22 02:24:50;;;;;;;79.97;46.40;;;;;;;;;;4994321;28;20204;-77
2020/12/22 02:27:15;;;;;;;80.07;45.53;;;;;;;;;;4994504;28;20212;-77
2020/12/22 02:29:41;;;;;;;86.70;48.03;;;;;;;;;;4994673;28;20165;-77
2020/12/22 02:32:06;;;;;;;82.17;46.13;;;;;;;;;;4994216;28;20181;-77
2020/12/22 02:34:31;;;;;;;80.80;44.40;;;;;;;;;;4993872;28;20178;-77
2020/12/22 02:36:57;;;;;;;77.00;43.73;;;;;;;;;;4994225;28;20621;-80
2020/12/22 02:39:22;;;;;;;83.37;44.20;;;;;;;;;;4994470;28;20197;-78
2020/12/22 02:41:47;;;;;;;89.47;46.83;;;;;;;;;;4993827;28;20189;-77
2020/12/22 02:44:13;;;;;;;89.43;46.23;;;;;;;;;;4994117;28;20193;-77
2020/12/22 02:46:38;;;;;;;89.83;47.17;;;;;;;;;;4994119;28;20213;-77
2020/12/22 02:49:04;;;;;;;86.57;47.20;;;;;;;;;;4994082;28;20170;-78
2020/12/22 02:51:33;;;;;;;86.87;45.10;;;;;;;;;;4994026;28;20598;-79
2020/12/22 02:53:58;;;;;;;82.50;44.27;;;;;;;;;;4993756;28;20170;-80
2020/12/22 02:56:23;;;;;;;77.63;43.47;;;;;;;;;;4993841;28;20197;-77
2020/12/22 02:58:51;;;;;;;79.57;43.77;;;;;;;;;;4993562;28;20629;-77
2020/12/22 03:01:16;;;;;;;80.10;43.50;;;;;;;;;;4993826;28;20316;-77
2020/12/22 03:03:41;;;;;;;103.00;52.27;;;;;;;;;;4993392;28;20624;-77
2020/12/22 03:06:07;;;;;;;76.33;44.03;;;;;;;;;;4993763;28;20181;-78
2020/12/22 03:08:32;;;;;;;77.47;44.43;;;;;;;;;;4993663;28;20278;-78
2020/12/22 03:10:57;;;;;;;77.63;44.07;;;;;;;;;;4993992;28;20174;-77
2020/12/22 03:13:23;;;;;;;76.10;45.43;;;;;;;;;;4993686;28;20188;-77
2020/12/22 03:15:48;;;;;;;100.50;59.27;;;;;;;;;;4993561;28;20312;-77
2020/12/22 03:18:13;;;;;;;105.57;58.47;;;;;;;;;;4993526;28;20178;-78
2020/12/22 03:20:39;;;;;;;77.77;46.00;;;;;;;;;;4993324;28;20177;-78
2020/12/22 03:23:04;;;;;;;74.33;43.10;;;;;;;;;;4993566;28;20241;-77
2020/12/22 03:25:30;;;;;;;90.53;50.63;;;;;;;;;;4993452;28;20178;-77
2020/12/22 03:27:56;;;;;;;83.57;47.73;;;;;;;;;;4993554;28;20202;-77
2020/12/22 03:30:21;;;;;;;79.77;44.73;;;;;;;;;;4993115;28;20245;-77
2020/12/22 03:32:46;;;;;;;72.93;45.07;;;;;;;;;;4993120;28;20650;-77
2020/12/22 03:35:13;;;;;;;93.17;50.60;;;;;;;;;;4993031;28;20198;-77
2020/12/22 03:37:38;;;;;;;76.30;42.77;;;;;;;;;;4993452;28;20180;-78
2020/12/22 03:40:05;;;;;;;94.73;55.80;;;;;;;;;;4993168;28;20170;-78
2020/12/22 03:42:31;;;;;;;77.33;42.90;;;;;;;;;;4993262;28;20617;-77
2020/12/22 03:44:56;;;;;;;89.43;51.03;;;;;;;;;;4993174;28;20228;-77
2020/12/22 03:47:21;;;;;;;75.03;44.20;;;;;;;;;;4992875;28;20201;-77
2020/12/22 03:49:47;;;;;;;77.23;43.70;;;;;;;;;;4993193;28;20220;-77
2020/12/22 03:52:12;;;;;;;60.53;34.47;;;;;;;;;;4993217;28;20509;-77
2020/12/22 03:54:38;;;;;;;74.73;44.73;;;;;;;;;;4993096;28;20632;-77
2020/12/22 03:57:04;;;;;;;64.07;37.87;;;;;;;;;;4993337;28;20636;-80
2020/12/22 03:59:30;;;;;;;69.90;37.80;;;;;;;;;;4993432;28;20178;-77
2020/12/22 04:01:55;;;;;;;68.90;37.47;;;;;;;;;;4993140;28;20235;-77
2020/12/22 04:04:21;;;;;;;70.20;39.83;;;;;;;;;;4993126;28;20189;-77
2020/12/22 04:06:46;;;;;;;71.83;40.17;;;;;;;;;;4992752;28;20181;-77
2020/12/22 04:09:12;;;;;;;66.97;38.57;;;;;;;;;;4992721;28;20180;-77
2020/12/22 04:11:39;;;;;;;76.80;40.53;;;;;;;;;;4993055;28;20170;-77
2020/12/22 04:14:05;;;;;;;70.03;37.33;;;;;;;;;;4993054;28;20197;-80
2020/12/22 04:16:30;;;;;;;70.50;39.90;;;;;;;;;;4992866;28;20205;-77
2020/12/22 04:18:56;;;;;;;62.33;36.57;;;;;;;;;;4992983;28;20189;-77
2020/12/22 04:21:21;;;;;;;71.57;39.67;;;;;;;;;;4992697;28;20181;-77
2020/12/22 04:23:46;;;;;;;68.43;37.80;;;;;;;;;;4992663;28;20178;-77
2020/12/22 04:26:12;;;;;;;63.30;35.70;;;;;;;;;;4992660;28;20268;-77
2020/12/22 04:28:37;;;;;;;65.57;37.60;;;;;;;;;;4992882;28;20170;-78
2020/12/22 04:31:02;;;;;;;61.20;34.43;;;;;;;;;;4993223;28;20170;-77
2020/12/22 04:33:28;;;;;;;61.47;36.33;;;;;;;;;;4992883;28;20505;-77
2020/12/22 04:35:53;;;;;;;67.30;36.73;;;;;;;;;;4992478;28;20201;-77
2020/12/22 04:38:18;;;;;;;60.00;34.43;;;;;;;;;;4992797;28;20208;-77
2020/12/22 04:40:44;;;;;;;62.03;34.60;;;;;;;;;;4992692;28;20170;-77
2020/12/22 04:43:09;;;;;;;63.53;34.50;;;;;;;;;;4992437;28;20170;-77
2020/12/22 04:45:35;;;;;;;59.10;34.90;;;;;;;;;;4992677;28;20182;-77
2020/12/22 04:48:00;;;;;;;64.67;35.67;;;;;;;;;;4992417;28;20170;-77
2020/12/22 04:50:25;;;;;;;69.33;38.00;;;;;;;;;;4992758;28;20540;-77
2020/12/22 04:52:51;;;;;;;60.47;35.23;;;;;;;;;;4992464;28;20170;-77
2020/12/22 04:55:17;;;;;;;68.27;37.70;;;;;;;;;;4992538;28;20201;-77
2020/12/22 04:57:50;;;;;;;67.97;38.27;;;;;;;;;;4995685;28;20607;-78
2020/12/22 05:00:16;;;;;;;70.10;39.00;;;;;;;;;;4995965;28;20806;-77
2020/12/22 05:02:42;;;;;;;66.20;38.13;;;;;;;;;;4996206;28;20228;-77
2020/12/22 05:05:09;;;;;;;59.07;34.13;;;;;;;;;;4996112;28;20648;-77
2020/12/22 05:07:34;;;;;;;62.23;37.17;;;;;;;;;;4996335;28;20169;-77
2020/12/22 05:10:12;;;;;;;64.17;35.40;;;;;;;;;;4995625;28;20509;-77
2020/12/22 05:12:38;;;;;;;62.43;34.60;;;;;;;;;;4996121;28;20198;-77
2020/12/22 05:15:05;;;;;;;62.63;34.00;;;;;;;;;;4995743;28;20671;-77
2020/12/22 05:17:30;;;;;;;59.70;34.20;;;;;;;;;;4995831;28;20199;-77
2020/12/22 05:19:56;;;;;;;56.83;32.73;;;;;;;;;;4995458;28;20225;-77
2020/12/22 05:22:22;;;;;;;57.63;33.27;;;;;;;;;;4995479;28;20170;-78
2020/12/22 05:24:49;;;;;;;63.43;36.20;;;;;;;;;;4995398;28;20633;-77
2020/12/22 05:27:15;;;;;;;61.50;34.17;;;;;;;;;;4995649;28;20173;-77
2020/12/22 05:29:41;;;;;;;58.50;33.43;;;;;;;;;;4995391;28;20165;-80
2020/12/22 05:32:06;;;;;;;56.23;32.00;;;;;;;;;;4995595;28;20166;-77
2020/12/22 05:34:31;;;;;;;54.73;32.27;;;;;;;;;;4995227;28;20170;-77
2020/12/22 05:36:58;;;;;;;61.63;33.77;;;;;;;;;;4994030;28;20283;-77
2020/12/22 05:39:24;;;;;;;62.47;34.53;;;;;;;;;;4995374;28;20165;-77
2020/12/22 05:41:50;;;;;;;62.10;33.87;;;;;;;;;;4995374;28;20170;-78
2020/12/22 05:44:15;;;;;;;62.13;32.90;;;;;;;;;;4995303;28;20166;-78
2020/12/22 05:46:41;;;;;;;55.37;32.87;;;;;;;;;;4995178;28;20170;-78
2020/12/22 05:49:08;;;;;;;64.13;34.97;;;;;;;;;;4995534;28;20174;-78
2020/12/22 05:51:33;;;;;;;57.53;32.23;;;;;;;;;;4995116;28;20173;-78
2020/12/22 05:54:08;;;;;;;62.30;34.20;;;;;;;;;;4994818;28;20169;-78
2020/12/22 05:56:34;;;;;;;70.93;38.67;;;;;;;;;;4994942;28;20208;-77
2020/12/22 05:59:00;;;;;;;65.20;35.10;;;;;;;;;;4994896;28;20257;-77
2020/12/22 06:01:29;;;;;;;57.47;31.63;;;;;;;;;;4994443;28;20629;-77
2020/12/22 06:03:55;;;;;;;78.27;43.50;;;;;;;;;;4994554;28;20673;-77
2020/12/22 06:06:21;;;;;;;79.63;42.83;;;;;;;;;;4994887;28;20629;-77
2020/12/22 06:08:49;;;;;;;71.83;33.30;;;;;;;;;;4993995;28;20174;-78
2020/12/22 06:11:14;;;;;;;86.23;44.50;;;;;;;;;;4994874;28;20178;-79
2020/12/22 06:13:40;;;;;;;56.40;33.07;;;;;;;;;;4994716;28;20170;-77
2020/12/22 06:16:13;;;;;;;65.93;31.70;;;;;;;;;;4994727;28;20202;-77
2020/12/22 06:18:39;;;;;;;57.47;33.33;;;;;;;;;;4994735;28;20166;-77
2020/12/22 06:21:04;;;;;;;57.87;30.70;;;;;;;;;;4994274;28;20178;-77
2020/12/22 06:23:29;;;;;;;61.63;32.63;;;;;;;;;;4994269;28;20166;-77
2020/12/22 06:26:02;;;;;;;53.70;29.50;;;;;;;;;;4994555;28;20173;-77
2020/12/22 06:28:29;;;;;;;54.33;29.87;;;;;;;;;;4994247;28;20191;-77
2020/12/22 06:30:54;;;;;;;62.40;33.37;;;;;;;;;;4994648;28;20177;-77
2020/12/22 06:33:21;;;;;;;53.27;30.13;;;;;;;;;;4994021;28;20162;-77
2020/12/22 06:35:58;;;;;;;64.23;32.07;;;;;;;;;;4994121;28;20280;-80
2020/12/22 06:39:02;;;;;;;59.03;32.77;;;;;;;;;;4994215;28;20166;-77
2020/12/22 06:41:28;;;;;;;61.43;31.10;;;;;;;;;;4953141;28;20178;-77
2020/12/22 06:43:54;;;;;;;64.67;30.83;;;;;;;;;;4953064;29;20171;-77
2020/12/22 06:46:51;;;;;;;52.57;29.83;;;;;;;;;;4972058;28;20193;-77
2020/12/22 06:49:16;;;;;;;58.00;29.63;;;;;;;;;;4984988;28;20541;-77
2020/12/22 06:51:42;;;;;;;56.03;29.23;;;;;;;;;;4993587;28;20165;-77
2020/12/22 06:54:13;;;;;;;53.07;29.83;;;;;;;;;;4993614;28;20444;-77
2020/12/22 06:56:41;;;;;;;60.73;30.50;;;;;;;;;;4993621;28;20723;-77
2020/12/22 06:59:10;;;;;;;47.67;27.50;;;;;;;;;;4993315;28;20174;-77
2020/12/22 07:01:37;;;;;;;48.23;26.90;;;;;;;;;;4995411;28;20312;-78
2020/12/22 07:04:14;;;;;;;54.43;31.50;;;;;;;;;;4994896;28;20224;-78
2020/12/22 07:06:56;;;;;;;52.33;28.60;;;;;;;;;;4995287;28;20173;-78
2020/12/22 07:09:31;;;;;;;60.60;34.27;;;;;;;;;;4995135;28;20176;-78
2020/12/22 07:12:08;;;;;;;53.90;29.10;;;;;;;;;;4976641;28;20173;-78
2020/12/22 07:14:35;;;;;;;56.70;31.13;;;;;;;;;;4994479;28;20265;-77
2020/12/22 07:17:02;;;;;;;61.70;35.17;;;;;;;;;;4994728;28;20212;-78
2020/12/22 07:19:28;;;;;;;94.70;44.30;;;;;;;;;;4994390;28;20181;-78
2020/12/22 07:21:54;;;;;;;105.10;52.20;;;;;;;;;;4994698;28;20197;-78
2020/12/22 07:24:20;;;;;;;69.60;37.83;;;;;;;;;;4994943;28;20256;-78
2020/12/22 07:26:45;;;;;;;45.17;26.33;;;;;;;;;;4994405;28;20644;-78
2020/12/22 07:29:11;;;;;;;49.40;28.90;;;;;;;;;;4993801;28;20184;-78
2020/12/22 07:31:36;;;;;;;62.13;33.47;;;;;;;;;;4994303;28;20177;-78
2020/12/22 07:34:03;;;;;;;55.10;30.10;;;;;;;;;;4994794;28;20181;-78
2020/12/22 07:36:28;;;;;;;50.33;27.53;;;;;;;;;;4994286;28;20636;-78
2020/12/22 07:38:54;;;;;;;77.23;40.47;;;;;;;;;;4993396;28;20201;-78
2020/12/22 07:41:26;;;;;;;53.97;30.47;;;;;;;;;;4993364;28;20791;-78
2020/12/22 07:44:04;;;;;;;59.17;34.37;;;;;;;;;;4975454;28;20181;-79
2020/12/22 07:46:29;;;;;;;60.30;33.27;;;;;;;;;;4994026;28;20170;-78
2020/12/22 07:48:55;;;;;;;56.73;32.27;;;;;;;;;;4994265;28;20256;-78
2020/12/22 07:51:20;;;;;;;46.00;28.30;;;;;;;;;;4993416;28;20174;-78
2020/12/22 07:53:46;;;;;;;76.60;38.13;;;;;;;;;;4993190;28;20177;-78
2020/12/22 07:56:11;;;;;;;89.10;44.10;;;;;;;;;;4994606;28;20221;-78
2020/12/22 07:58:37;;;;;;;78.77;41.17;;;;;;;;;;5004013;28;20185;-77
2020/12/22 08:01:02;;;;;;;53.67;32.10;;;;;;;;;;4994436;28;20229;-78
2020/12/22 08:03:28;;;;;;;45.47;27.53;;;;;;;;;;4994157;28;20216;-78
2020/12/22 08:06:00;;;;;;;41.97;26.00;;;;;;;;;;4994726;28;20189;-78
2020/12/22 08:08:26;;;;;;;45.83;26.13;;;;;;;;;;4994263;28;20174;-78
2020/12/22 08:10:51;;;;;;;54.27;31.53;;;;;;;;;;4994213;28;20277;-78
2020/12/22 08:13:17;;;;;;;43.80;25.73;;;;;;;;;;4993877;28;20166;-78
2020/12/22 08:15:42;;;;;;;44.30;27.07;;;;;;;;;;4993991;28;20252;-77
2020/12/22 08:18:08;;;;;;;47.47;28.33;;;;;;;;;;4993930;28;20181;-78
2020/12/22 08:20:34;;;;;;;44.60;25.73;;;;;;;;;;4994395;28;20170;-77
2020/12/22 08:23:00;;;;;;;49.77;27.63;;;;;;;;;;4994701;28;20176;-77
2020/12/22 08:25:26;;;;;;;43.80;27.27;;;;;;;;;;4994169;28;20212;-77
2020/12/22 08:27:54;;;;;;;43.17;27.03;;;;;;;;;;4994076;28;20275;-77
2020/12/22 08:30:20;;;;;;;53.23;30.10;;;;;;;;;;4994574;28;20264;-77
2020/12/22 08:32:46;;;;;;;76.13;39.37;;;;;;;;;;4997646;28;20205;-77
2020/12/22 08:35:11;;;;;;;49.53;27.47;;;;;;;;;;4996499;28;20225;-78
2020/12/22 08:37:37;;;;;;;46.17;28.80;;;;;;;;;;4996833;28;20213;-77
2020/12/22 08:40:04;;;;;;;44.63;27.27;;;;;;;;;;4996613;28;20174;-78
2020/12/22 08:42:30;;;;;;;49.27;28.90;;;;;;;;;;4996123;28;20748;-78
2020/12/22 08:44:55;;;;;;;40.67;27.20;;;;;;;;;;4997347;28;20206;-77
2020/12/22 08:47:21;;;;;;;47.27;28.23;;;;;;;;;;4997275;28;20182;-77
2020/12/22 08:49:46;;;;;;;38.60;24.70;;;;;;;;;;5001055;28;20546;-78
2020/12/22 08:52:16;;;;;;;45.30;27.47;;;;;;;;;;5000663;28;20205;-77
2020/12/22 08:54:43;;;;;;;43.40;26.93;;;;;;;;;;4997124;28;20631;-77
2020/12/22 08:57:15;;;;;;;46.83;28.87;;;;;;;;;;4995474;28;20305;-78
2020/12/22 08:59:40;;;;;;;43.37;27.77;;;;;;;;;;4995535;28;20182;-77
2020/12/22 09:02:06;;;;;;;43.27;26.23;;;;;;;;;;4996480;28;20244;-77
2020/12/22 09:04:32;;;;;;;51.67;30.90;;;;;;;;;;4996241;28;20196;-77
2020/12/22 09:06:58;;;;;;;40.33;25.43;;;;;;;;;;4996467;28;20178;-78
2020/12/22 09:09:28;;;;;;;40.60;24.60;;;;;;;;;;4996747;28;20177;-77
2020/12/22 09:12:06;;;;;;;48.73;31.17;;;;;;;;;;4996709;28;20178;-78
2020/12/22 09:14:42;;;;;;;48.60;29.27;;;;;;;;;;4997274;28;20628;-77
2020/12/22 09:17:08;;;;;;;38.73;25.67;;;;;;;;;;4996509;28;20236;-77
2020/12/22 09:19:40;;;;;;;44.33;26.93;;;;;;;;;;4996323;28;20261;-78
2020/12/22 09:22:06;;;;;;;38.63;25.47;;;;;;;;;;4996490;28;20495;-78
2020/12/22 09:24:33;;;;;;;39.37;24.97;;;;;;;;;;4996299;28;20177;-78
2020/12/22 09:27:03;;;;;;;42.47;26.27;;;;;;;;;;4996621;28;20185;-77
2020/12/22 09:29:28;;;;;;;46.37;26.63;;;;;;;;;;4996423;28;20182;-77
2020/12/22 09:31:54;;;;;;;45.63;29.57;;;;;;;;;;4996442;28;20252;-77
2020/12/22 09:34:20;;;;;;;49.67;32.87;;;;;;;;;;4996342;28;20170;-77
2020/12/22 09:36:53;;;;;;;52.63;34.67;;;;;;;;;;4996510;28;20247;-77
2020/12/22 09:39:18;;;;;;;44.03;28.03;;;;;;;;;;4996291;28;20170;-77
2020/12/22 09:41:44;;;;;;;39.50;24.80;;;;;;;;;;4996022;28;20168;-77
2020/12/22 09:44:10;;;;;;;36.53;23.33;;;;;;;;;;5001093;28;20177;-77
2020/12/22 09:46:35;;;;;;;36.33;23.73;;;;;;;;;;5014044;28;20524;-77
2020/12/22 09:49:00;;;;;;;38.47;23.87;;;;;;;;;;5016209;28;20165;-77
2020/12/22 09:51:26;;;;;;;34.80;22.63;;;;;;;;;;5016166;28;20608;-77
2020/12/22 09:53:51;;;;;;;39.67;24.67;;;;;;;;;;4997723;28;20177;-78
2020/12/22 09:56:17;;;;;;;40.37;26.63;;;;;;;;;;5014158;28;20197;-78
2020/12/22 09:58:42;;;;;;;36.53;23.23;;;;;;;;;;5014766;28;20256;-78
2020/12/22 10:01:07;;;;;;;35.63;23.77;;;;;;;;;;5012420;28;20268;-79
2020/12/22 10:03:33;;;;;;;35.40;23.10;;;;;;;;;;5014426;28;20189;-77
2020/12/22 10:05:58;;;;;;;39.73;24.10;;;;;;;;;;5014291;28;20189;-78
2020/12/22 10:08:23;;;;;;;40.37;25.93;;;;;;;;;;5014174;28;20675;-78
2020/12/22 10:10:48;;;;;;;38.33;24.23;;;;;;;;;;5013897;28;20573;-78
2020/12/22 10:13:14;;;;;;;38.57;25.43;;;;;;;;;;5013926;28;20531;-78
2020/12/22 10:15:39;;;;;;;37.00;24.47;;;;;;;;;;5013892;28;20201;-78
2020/12/22 10:18:09;;;;;;;40.30;25.17;;;;;;;;;;5012207;28;20179;-78
2020/12/22 10:20:35;;;;;;;40.27;23.77;;;;;;;;;;4992865;28;20552;-79
2020/12/22 10:23:00;;;;;;;38.60;23.47;;;;;;;;;;4993206;28;20189;-79
2020/12/22 10:25:26;;;;;;;40.13;23.67;;;;;;;;;;4994545;28;20181;-78
2020/12/22 10:27:51;;;;;;;42.40;26.53;;;;;;;;;;4994634;28;20170;-77
2020/12/22 10:30:16;;;;;;;37.33;23.73;;;;;;;;;;4995659;28;20170;-77
2020/12/22 10:32:42;;;;;;;46.60;28.33;;;;;;;;;;4995215;28;20178;-77
2020/12/22 10:35:08;;;;;;;46.33;29.80;;;;;;;;;;4995106;28;20293;-77
2020/12/22 10:37:33;;;;;;;44.60;28.77;;;;;;;;;;4995106;28;20174;-78
2020/12/22 10:39:58;;;;;;;42.70;28.53;;;;;;;;;;4995660;28;20170;-77
2020/12/22 10:42:24;;;;;;;42.60;28.63;;;;;;;;;;4994782;28;20560;-79
2020/12/22 10:44:49;;;;;;;45.80;29.37;;;;;;;;;;4994417;28;20205;-78
2020/12/22 10:47:14;;;;;;;36.90;25.70;;;;;;;;;;4995561;28;20174;-78
2020/12/22 10:49:40;;;;;;;42.73;27.43;;;;;;;;;;4995846;28;20183;-77
2020/12/22 10:52:05;;;;;;;56.37;34.73;;;;;;;;;;5004793;28;20220;-77
2020/12/22 10:54:30;;;;;;;55.37;32.87;;;;;;;;;;5013254;28;20173;-77
2020/12/22 10:56:56;;;;;;;56.73;33.37;;;;;;;;;;5013254;28;20523;-77
2020/12/22 10:59:21;;;;;;;45.90;29.30;;;;;;;;;;5013325;28;20232;-78
2020/12/22 11:01:49;;;;;;;39.73;25.30;;;;;;;;;;5012824;28;20224;-78
2020/12/22 11:04:14;;;;;;;44.73;28.97;;;;;;;;;;5013146;28;20682;-77
2020/12/22 11:06:57;;;;;;;47.30;29.53;;;;;;;;;;4993739;28;20190;-78
2020/12/22 11:09:22;;;;;;;42.23;28.53;;;;;;;;;;4993457;28;20193;-78
2020/12/22 11:11:48;;;;;;;38.73;27.57;;;;;;;;;;4993812;28;20652;-78
2020/12/22 11:14:13;;;;;;;36.53;25.67;;;;;;;;;;4993426;28;20170;-78
2020/12/22 11:16:39;;;;;;;42.90;27.60;;;;;;;;;;4993279;28;20201;-77
2020/12/22 11:19:04;;;;;;;40.87;26.97;;;;;;;;;;4993086;28;20165;-78
2020/12/22 11:21:29;;;;;;;36.07;24.30;;;;;;;;;;4975565;28;20235;-78
2020/12/22 11:23:55;;;;;;;35.73;24.70;;;;;;;;;;4992869;28;20180;-77
2020/12/22 11:26:21;;;;;;;38.23;25.80;;;;;;;;;;4993083;28;20189;-78
2020/12/22 11:28:47;;;;;;;37.40;24.73;;;;;;;;;;4993067;28;20178;-77
2020/12/22 11:31:12;;;;;;;40.03;25.33;;;;;;;;;;4993133;28;20178;-77
2020/12/22 11:33:40;;;;;;;51.53;30.20;;;;;;;;;;4976043;28;20530;-78
2020/12/22 11:36:05;;;;;;;46.93;30.53;;;;;;;;;;4993013;28;20207;-77
2020/12/22 11:38:30;;;;;;;46.90;30.33;;;;;;;;;;4993203;28;20174;-79
2020/12/22 11:40:57;;;;;;;39.97;25.73;;;;;;;;;;4992717;28;20197;-78
2020/12/22 11:43:22;;;;;;;42.77;26.33;;;;;;;;;;4992800;28;20181;-77
2020/12/22 11:45:47;;;;;;;41.23;28.03;;;;;;;;;;4993329;28;20514;-78
2020/12/22 11:48:13;;;;;;;40.13;24.57;;;;;;;;;;4975562;28;20170;-78
2020/12/22 11:50:38;;;;;;;43.47;26.57;;;;;;;;;;4975780;28;20641;-78
2020/12/22 11:53:03;;;;;;;46.63;29.97;;;;;;;;;;4992680;28;20228;-77
2020/12/22 11:55:29;;;;;;;41.83;26.83;;;;;;;;;;4992790;28;20221;-77
2020/12/22 11:57:54;;;;;;;44.73;29.20;;;;;;;;;;4993066;28;20170;-78
2020/12/22 12:00:19;;;;;;;48.00;30.47;;;;;;;;;;4992074;28;20257;-77
2020/12/22 12:02:45;;;;;;;47.80;30.67;;;;;;;;;;4993336;28;20194;-78
2020/12/22 12:05:10;;;;;;;45.50;30.47;;;;;;;;;;4992457;28;20181;-78
2020/12/22 12:07:35;;;;;;;53.40;31.10;;;;;;;;;;4995610;28;20177;-79
2020/12/22 12:10:01;;;;;;;51.97;31.60;;;;;;;;;;4996540;28;20174;-78
2020/12/22 12:12:28;;;;;;;107.50;56.47;;;;;;;;;;4996489;28;20162;-79
2020/12/22 12:14:53;;;;;;;58.97;39.03;;;;;;;;;;4996627;28;20177;-78
2020/12/22 12:17:19;;;;;;;275.60;120.50;;;;;;;;;;4996747;28;20683;-79
2020/12/22 12:19:44;;;;;;;131.03;66.43;;;;;;;;;;4996805;28;20170;-79
2020/12/22 12:22:09;;;;;;;181.73;77.10;;;;;;;;;;4996618;28;20173;-78
2020/12/22 12:24:35;;;;;;;91.53;45.77;;;;;;;;;;4996663;28;20169;-78
2020/12/22 12:27:00;;;;;;;409.53;168.33;;;;;;;;;;4996538;28;20281;-78
2020/12/22 12:29:26;;;;;;;140.10;61.20;;;;;;;;;;4996733;28;20166;-78
2020/12/22 12:31:51;;;;;;;102.70;49.20;;;;;;;;;;4996216;28;20636;-79
2020/12/22 12:34:17;;;;;;;45.37;30.47;;;;;;;;;;4996139;28;20228;-78
2020/12/22 12:36:42;;;;;;;171.23;80.60;;;;;;;;;;4996907;28;20206;-78
2020/12/22 12:39:08;;;;;;;58.57;34.83;;;;;;;;;;4997992;28;20175;-78
2020/12/22 12:41:33;;;;;;;58.60;35.97;;;;;;;;;;4997953;28;20185;-78
2020/12/22 12:43:59;;;;;;;66.23;39.27;;;;;;;;;;4997380;28;20624;-78
2020/12/22 12:46:25;;;;;;;41.27;26.97;;;;;;;;;;4997513;28;20178;-78
2020/12/22 12:48:51;;;;;;;43.27;27.57;;;;;;;;;;4997814;28;20525;-78
2020/12/22 12:51:16;;;;;;;72.03;43.93;;;;;;;;;;4997177;28;20173;-78
2020/12/22 12:53:42;;;;;;;36.03;25.73;;;;;;;;;;4997239;28;20277;-79
2020/12/22 12:56:11;;;;;;;42.73;27.93;;;;;;;;;;4997403;28;20212;-78
2020/12/22 12:58:36;;;;;;;44.77;29.83;;;;;;;;;;4997527;28;20501;-78
2020/12/22 13:01:02;;;;;;;44.67;30.10;;;;;;;;;;4996119;28;20240;-78
2020/12/22 13:03:27;;;;;;;38.73;27.13;;;;;;;;;;4996702;28;20210;-78
2020/12/22 13:05:52;;;;;;;37.03;24.13;;;;;;;;;;4997002;28;20178;-78
2020/12/22 13:08:18;;;;;;;38.20;24.37;;;;;;;;;;4997746;28;20257;-78
2020/12/22 13:10:43;;;;;;;53.47;32.77;;;;;;;;;;4996666;28;20209;-78
2020/12/22 13:13:08;;;;;;;52.37;33.60;;;;;;;;;;4997376;28;20174;-79
2020/12/22 13:15:34;;;;;;;85.87;49.13;;;;;;;;;;4996644;28;20205;-79
2020/12/22 13:17:59;;;;;;;49.73;31.03;;;;;;;;;;4978939;28;20177;-79
2020/12/22 13:20:25;;;;;;;43.57;27.93;;;;;;;;;;4996675;28;20174;-78
2020/12/22 13:22:50;;;;;;;37.17;24.93;;;;;;;;;;4996991;28;20265;-79
2020/12/22 13:25:15;;;;;;;63.20;38.70;;;;;;;;;;4995486;28;20177;-78
2020/12/22 13:27:41;;;;;;;42.27;28.27;;;;;;;;;;4996439;28;20257;-79
2020/12/22 13:30:06;;;;;;;34.37;24.23;;;;;;;;;;4996458;28;20169;-78
2020/12/22 13:32:31;;;;;;;43.07;30.13;;;;;;;;;;4997297;28;20597;-78
2020/12/22 13:34:57;;;;;;;46.77;31.53;;;;;;;;;;4996341;28;20201;-78
2020/12/22 13:37:22;;;;;;;36.67;24.67;;;;;;;;;;4996379;28;20189;-78
2020/12/22 13:39:47;;;;;;;36.07;23.63;;;;;;;;;;4996596;28;20633;-78
2020/12/22 13:42:13;;;;;;;32.17;20.33;;;;;;;;;;4979842;28;20485;-78
2020/12/22 13:44:39;;;;;;;39.03;26.03;;;;;;;;;;4996049;28;20177;-78
2020/12/22 13:47:04;;;;;;;40.07;26.23;;;;;;;;;;4997105;28;20184;-78
2020/12/22 13:49:30;;;;;;;36.90;25.17;;;;;;;;;;4995122;28;20544;-79
2020/12/22 13:51:55;;;;;;;38.00;25.00;;;;;;;;;;4995667;28;20181;-78
2020/12/22 13:54:21;;;;;;;41.27;28.13;;;;;;;;;;4996644;28;20166;-78
2020/12/22 13:56:46;;;;;;;38.73;24.43;;;;;;;;;;4996203;28;20633;-79
2020/12/22 13:59:13;;;;;;;35.23;25.20;;;;;;;;;;4996503;28;20702;-78
2020/12/22 14:01:38;;;;;;;36.67;24.67;;;;;;;;;;4997008;28;20572;-78
2020/12/22 14:04:04;;;;;;;40.83;29.67;;;;;;;;;;4995893;28;20288;-78
2020/12/22 14:06:29;;;;;;;34.33;23.27;;;;;;;;;;4995717;28;20174;-78
2020/12/22 14:08:54;;;;;;;36.50;25.43;;;;;;;;;;4996066;28;20224;-78
2020/12/22 14:11:21;;;;;;;33.73;22.60;;;;;;;;;;4996282;28;20176;-79